sensor_id;sensor_type;location;lat;lon;timestamp;P1;durP1;ratioP1;P2;durP2;ratioP2
41921;SDS011;27609;51.002;5.354;2023-03-11T00:02:14;9.73;;;2.50;;
41921;SDS011;27609;51.002;5.354;2023-03-11T00:04:40;14.55;;;2.60;;
41921;SDS011;27609;51.002;5.354;2023-03-11T00:07:07;10.65;;;2.63;;
41921;SDS011;27609;51.002;5.354;2023-03-11T00:09:33;4.05;;;2.55;;
41921;SDS011;27609;51.002;5.354;2023-03-11T00:11:59;6.40;;;2.55;;
41921;SDS011;27609;51.002;5.354;2023-03-11T00:14:25;10.38;;;2.60;;
41921;SDS011;27609;51.002;5.354;2023-03-11T00:16:51;8.27;;;2.55;;
41921;SDS011;27609;51.002;5.354;2023-03-11T00:19:17;7.78;;;2.22;;
41921;SDS011;27609;51.002;5.354;2023-03-11T00:21:42;5.78;;;2.38;;
41921;SDS011;27609;51.002;5.354;2023-03-11T00:24:09;5.25;;;1.98;;
41921;SDS011;27609;51.002;5.354;2023-03-11T00:26:35;7.88;;;2.05;;
41921;SDS011;27609;51.002;5.354;2023-03-11T00:29:00;7.63;;;3.25;;
41921;SDS011;27609;51.002;5.354;2023-03-11T00:31:26;5.35;;;2.40;;
41921;SDS011;27609;51.002;5.354;2023-03-11T00:33:52;15.10;;;4.40;;
41921;SDS011;27609;51.002;5.354;2023-03-11T00:36:22;12.40;;;3.47;;
41921;SDS011;27609;51.002;5.354;2023-03-11T00:38:52;12.13;;;4.28;;
41921;SDS011;27609;51.002;5.354;2023-03-11T00:41:18;14.43;;;5.65;;
41921;SDS011;27609;51.002;5.354;2023-03-11T00:43:44;22.45;;;5.32;;
41921;SDS011;27609;51.002;5.354;2023-03-11T00:46:10;18.88;;;7.75;;
41921;SDS011;27609;51.002;5.354;2023-03-11T00:48:36;11.73;;;5.40;;
41921;SDS011;27609;51.002;5.354;2023-03-11T00:51:02;14.00;;;4.70;;
41921;SDS011;27609;51.002;5.354;2023-03-11T00:53:28;10.20;;;3.97;;
41921;SDS011;27609;51.002;5.354;2023-03-11T00:55:54;10.63;;;5.75;;
41921;SDS011;27609;51.002;5.354;2023-03-11T00:58:19;17.80;;;6.47;;
41921;SDS011;27609;51.002;5.354;2023-03-11T01:00:47;12.77;;;6.03;;
41921;SDS011;27609;51.002;5.354;2023-03-11T01:03:13;13.57;;;5.72;;
41921;SDS011;27609;51.002;5.354;2023-03-11T01:05:39;13.68;;;4.40;;
41921;SDS011;27609;51.002;5.354;2023-03-11T01:08:04;13.50;;;3.83;;
41921;SDS011;27609;51.002;5.354;2023-03-11T01:10:31;9.27;;;4.28;;
41921;SDS011;27609;51.002;5.354;2023-03-11T01:12:57;15.02;;;4.07;;
41921;SDS011;27609;51.002;5.354;2023-03-11T01:15:25;21.08;;;3.78;;
41921;SDS011;27609;51.002;5.354;2023-03-11T01:17:56;9.75;;;3.40;;
41921;SDS011;27609;51.002;5.354;2023-03-11T01:20:21;11.02;;;3.72;;
41921;SDS011;27609;51.002;5.354;2023-03-11T01:22:47;9.80;;;5.15;;
41921;SDS011;27609;51.002;5.354;2023-03-11T01:25:14;14.02;;;4.55;;
41921;SDS011;27609;51.002;5.354;2023-03-11T01:27:43;14.80;;;6.13;;
41921;SDS011;27609;51.002;5.354;2023-03-11T01:30:09;13.00;;;4.82;;
41921;SDS011;27609;51.002;5.354;2023-03-11T01:32:39;19.45;;;8.23;;
41921;SDS011;27609;51.002;5.354;2023-03-11T01:35:04;23.08;;;9.40;;
41921;SDS011;27609;51.002;5.354;2023-03-11T01:37:30;22.95;;;9.23;;
41921;SDS011;27609;51.002;5.354;2023-03-11T01:39:56;18.95;;;6.78;;
41921;SDS011;27609;51.002;5.354;2023-03-11T01:42:22;20.55;;;6.15;;
41921;SDS011;27609;51.002;5.354;2023-03-11T01:44:48;11.65;;;5.40;;
41921;SDS011;27609;51.002;5.354;2023-03-11T01:49:55;11.32;;;4.60;;
41921;SDS011;27609;51.002;5.354;2023-03-11T01:52:21;15.35;;;4.30;;
41921;SDS011;27609;51.002;5.354;2023-03-11T01:54:47;12.85;;;3.58;;
41921;SDS011;27609;51.002;5.354;2023-03-11T01:57:12;15.10;;;4.53;;
41921;SDS011;27609;51.002;5.354;2023-03-11T01:59:41;7.30;;;3.47;;
41921;SDS011;27609;51.002;5.354;2023-03-11T02:02:20;4.35;;;2.83;;
41921;SDS011;27609;51.002;5.354;2023-03-11T02:04:54;8.80;;;3.28;;
41921;SDS011;27609;51.002;5.354;2023-03-11T02:07:20;12.20;;;3.33;;
41921;SDS011;27609;51.002;5.354;2023-03-11T02:09:46;6.47;;;2.80;;
41921;SDS011;27609;51.002;5.354;2023-03-11T02:12:12;6.22;;;3.42;;
41921;SDS011;27609;51.002;5.354;2023-03-11T02:14:41;7.07;;;3.33;;
41921;SDS011;27609;51.002;5.354;2023-03-11T02:17:09;14.10;;;3.42;;
41921;SDS011;27609;51.002;5.354;2023-03-11T02:22:31;9.63;;;3.20;;
41921;SDS011;27609;51.002;5.354;2023-03-11T02:27:26;8.88;;;3.38;;
41921;SDS011;27609;51.002;5.354;2023-03-11T02:29:55;8.55;;;3.13;;
41921;SDS011;27609;51.002;5.354;2023-03-11T02:32:23;9.75;;;3.35;;
41921;SDS011;27609;51.002;5.354;2023-03-11T02:34:49;16.15;;;4.50;;
41921;SDS011;27609;51.002;5.354;2023-03-11T02:37:15;8.70;;;3.13;;
41921;SDS011;27609;51.002;5.354;2023-03-11T02:39:42;6.22;;;3.80;;
41921;SDS011;27609;51.002;5.354;2023-03-11T02:44:58;7.50;;;3.25;;
41921;SDS011;27609;51.002;5.354;2023-03-11T02:50:00;8.80;;;3.40;;
41921;SDS011;27609;51.002;5.354;2023-03-11T02:52:26;12.00;;;4.53;;
41921;SDS011;27609;51.002;5.354;2023-03-11T02:54:52;10.70;;;3.75;;
41921;SDS011;27609;51.002;5.354;2023-03-11T02:57:18;9.48;;;3.30;;
41921;SDS011;27609;51.002;5.354;2023-03-11T02:59:44;8.95;;;3.50;;
41921;SDS011;27609;51.002;5.354;2023-03-11T03:02:09;12.90;;;3.38;;
41921;SDS011;27609;51.002;5.354;2023-03-11T03:04:35;14.00;;;4.05;;
41921;SDS011;27609;51.002;5.354;2023-03-11T03:07:01;9.23;;;3.55;;
41921;SDS011;27609;51.002;5.354;2023-03-11T03:09:26;12.00;;;3.50;;
41921;SDS011;27609;51.002;5.354;2023-03-11T03:11:52;12.35;;;4.18;;
41921;SDS011;27609;51.002;5.354;2023-03-11T03:14:18;28.40;;;4.10;;
41921;SDS011;27609;51.002;5.354;2023-03-11T03:16:43;9.57;;;3.63;;
41921;SDS011;27609;51.002;5.354;2023-03-11T03:19:09;11.00;;;3.65;;
41921;SDS011;27609;51.002;5.354;2023-03-11T03:21:35;10.68;;;3.85;;
41921;SDS011;27609;51.002;5.354;2023-03-11T03:24:00;26.45;;;4.13;;
41921;SDS011;27609;51.002;5.354;2023-03-11T03:26:27;13.55;;;5.20;;
41921;SDS011;27609;51.002;5.354;2023-03-11T03:28:52;11.30;;;4.30;;
41921;SDS011;27609;51.002;5.354;2023-03-11T03:31:18;19.20;;;4.60;;
41921;SDS011;27609;51.002;5.354;2023-03-11T03:33:44;8.13;;;3.05;;
41921;SDS011;27609;51.002;5.354;2023-03-11T03:36:11;13.52;;;4.35;;
41921;SDS011;27609;51.002;5.354;2023-03-11T03:38:38;10.63;;;3.72;;
41921;SDS011;27609;51.002;5.354;2023-03-11T03:41:04;9.93;;;3.15;;
41921;SDS011;27609;51.002;5.354;2023-03-11T03:43:30;4.13;;;3.05;;
41921;SDS011;27609;51.002;5.354;2023-03-11T03:46:00;13.20;;;5.03;;
41921;SDS011;27609;51.002;5.354;2023-03-11T03:48:28;18.00;;;5.72;;
41921;SDS011;27609;51.002;5.354;2023-03-11T03:50:54;14.02;;;4.28;;
41921;SDS011;27609;51.002;5.354;2023-03-11T03:53:20;14.30;;;5.00;;
41921;SDS011;27609;51.002;5.354;2023-03-11T03:55:46;12.77;;;4.53;;
41921;SDS011;27609;51.002;5.354;2023-03-11T03:58:11;11.95;;;4.10;;
41921;SDS011;27609;51.002;5.354;2023-03-11T04:00:37;13.55;;;4.70;;
41921;SDS011;27609;51.002;5.354;2023-03-11T04:03:04;12.07;;;4.68;;
41921;SDS011;27609;51.002;5.354;2023-03-11T04:05:30;7.95;;;4.97;;
41921;SDS011;27609;51.002;5.354;2023-03-11T04:07:56;5.78;;;3.60;;
41921;SDS011;27609;51.002;5.354;2023-03-11T04:10:22;12.80;;;4.70;;
41921;SDS011;27609;51.002;5.354;2023-03-11T04:12:47;9.48;;;3.70;;
41921;SDS011;27609;51.002;5.354;2023-03-11T04:15:13;8.00;;;4.72;;
41921;SDS011;27609;51.002;5.354;2023-03-11T04:17:39;16.88;;;4.53;;
41921;SDS011;27609;51.002;5.354;2023-03-11T04:20:05;9.75;;;4.30;;
41921;SDS011;27609;51.002;5.354;2023-03-11T04:22:32;11.23;;;4.72;;
41921;SDS011;27609;51.002;5.354;2023-03-11T04:24:58;11.77;;;4.10;;
41921;SDS011;27609;51.002;5.354;2023-03-11T04:27:24;9.95;;;4.38;;
41921;SDS011;27609;51.002;5.354;2023-03-11T04:29:49;14.45;;;4.43;;
41921;SDS011;27609;51.002;5.354;2023-03-11T04:32:15;11.60;;;5.18;;
41921;SDS011;27609;51.002;5.354;2023-03-11T04:34:41;12.95;;;6.15;;
41921;SDS011;27609;51.002;5.354;2023-03-11T04:37:07;14.40;;;5.57;;
41921;SDS011;27609;51.002;5.354;2023-03-11T04:39:33;12.20;;;5.25;;
41921;SDS011;27609;51.002;5.354;2023-03-11T04:41:59;15.52;;;4.28;;
41921;SDS011;27609;51.002;5.354;2023-03-11T04:44:24;17.52;;;4.97;;
41921;SDS011;27609;51.002;5.354;2023-03-11T04:46:50;11.90;;;4.13;;
41921;SDS011;27609;51.002;5.354;2023-03-11T04:49:16;7.43;;;4.28;;
41921;SDS011;27609;51.002;5.354;2023-03-11T04:51:42;11.32;;;4.43;;
41921;SDS011;27609;51.002;5.354;2023-03-11T04:54:08;9.57;;;4.10;;
41921;SDS011;27609;51.002;5.354;2023-03-11T04:56:33;11.00;;;4.65;;
41921;SDS011;27609;51.002;5.354;2023-03-11T04:58:59;8.07;;;4.90;;
41921;SDS011;27609;51.002;5.354;2023-03-11T05:01:25;21.15;;;5.45;;
41921;SDS011;27609;51.002;5.354;2023-03-11T05:03:51;10.52;;;4.40;;
41921;SDS011;27609;51.002;5.354;2023-03-11T05:06:16;7.68;;;4.80;;
41921;SDS011;27609;51.002;5.354;2023-03-11T05:08:42;11.93;;;4.75;;
41921;SDS011;27609;51.002;5.354;2023-03-11T05:11:08;10.57;;;3.53;;
41921;SDS011;27609;51.002;5.354;2023-03-11T05:13:33;9.00;;;4.65;;
41921;SDS011;27609;51.002;5.354;2023-03-11T05:15:59;9.48;;;4.18;;
41921;SDS011;27609;51.002;5.354;2023-03-11T05:18:25;15.45;;;4.32;;
41921;SDS011;27609;51.002;5.354;2023-03-11T05:20:51;9.15;;;4.38;;
41921;SDS011;27609;51.002;5.354;2023-03-11T05:23:17;12.90;;;3.85;;
41921;SDS011;27609;51.002;5.354;2023-03-11T05:25:43;23.30;;;5.10;;
41921;SDS011;27609;51.002;5.354;2023-03-11T05:28:09;16.00;;;4.32;;
41921;SDS011;27609;51.002;5.354;2023-03-11T05:30:35;9.80;;;3.95;;
41921;SDS011;27609;51.002;5.354;2023-03-11T05:33:00;13.63;;;4.40;;
41921;SDS011;27609;51.002;5.354;2023-03-11T05:35:26;11.23;;;4.22;;
41921;SDS011;27609;51.002;5.354;2023-03-11T05:37:52;11.25;;;4.22;;
41921;SDS011;27609;51.002;5.354;2023-03-11T05:40:18;9.27;;;4.13;;
41921;SDS011;27609;51.002;5.354;2023-03-11T05:42:44;10.43;;;4.45;;
41921;SDS011;27609;51.002;5.354;2023-03-11T05:45:10;7.00;;;3.47;;
41921;SDS011;27609;51.002;5.354;2023-03-11T05:47:36;8.60;;;4.30;;
41921;SDS011;27609;51.002;5.354;2023-03-11T05:50:01;9.88;;;4.57;;
41921;SDS011;27609;51.002;5.354;2023-03-11T05:52:27;11.05;;;4.00;;
41921;SDS011;27609;51.002;5.354;2023-03-11T05:54:56;11.60;;;4.72;;
41921;SDS011;27609;51.002;5.354;2023-03-11T05:57:22;5.93;;;4.63;;
41921;SDS011;27609;51.002;5.354;2023-03-11T05:59:48;13.35;;;4.60;;
41921;SDS011;27609;51.002;5.354;2023-03-11T06:02:13;13.65;;;5.93;;
41921;SDS011;27609;51.002;5.354;2023-03-11T06:04:39;11.88;;;5.57;;
41921;SDS011;27609;51.002;5.354;2023-03-11T06:07:05;11.55;;;5.30;;
41921;SDS011;27609;51.002;5.354;2023-03-11T06:09:30;9.55;;;5.05;;
41921;SDS011;27609;51.002;5.354;2023-03-11T06:11:56;13.45;;;5.28;;
41921;SDS011;27609;51.002;5.354;2023-03-11T06:14:21;11.57;;;5.18;;
41921;SDS011;27609;51.002;5.354;2023-03-11T06:16:47;11.30;;;6.47;;
41921;SDS011;27609;51.002;5.354;2023-03-11T06:19:13;19.52;;;6.75;;
41921;SDS011;27609;51.002;5.354;2023-03-11T06:21:38;12.85;;;5.45;;
41921;SDS011;27609;51.002;5.354;2023-03-11T06:24:04;10.82;;;5.18;;
41921;SDS011;27609;51.002;5.354;2023-03-11T06:26:30;12.10;;;6.05;;
41921;SDS011;27609;51.002;5.354;2023-03-11T06:28:56;15.40;;;6.53;;
41921;SDS011;27609;51.002;5.354;2023-03-11T06:31:26;14.75;;;6.40;;
41921;SDS011;27609;51.002;5.354;2023-03-11T06:33:53;10.65;;;6.20;;
41921;SDS011;27609;51.002;5.354;2023-03-11T06:36:23;20.55;;;7.88;;
41921;SDS011;27609;51.002;5.354;2023-03-11T06:38:52;21.60;;;8.02;;
41921;SDS011;27609;51.002;5.354;2023-03-11T06:41:18;16.35;;;7.13;;
41921;SDS011;27609;51.002;5.354;2023-03-11T06:43:44;14.02;;;6.38;;
41921;SDS011;27609;51.002;5.354;2023-03-11T06:46:11;14.80;;;6.40;;
41921;SDS011;27609;51.002;5.354;2023-03-11T06:48:39;14.10;;;6.32;;
41921;SDS011;27609;51.002;5.354;2023-03-11T06:51:05;18.98;;;7.22;;
41921;SDS011;27609;51.002;5.354;2023-03-11T06:53:31;11.43;;;6.57;;
41921;SDS011;27609;51.002;5.354;2023-03-11T06:56:04;11.32;;;6.65;;
41921;SDS011;27609;51.002;5.354;2023-03-11T06:58:32;16.55;;;7.20;;
41921;SDS011;27609;51.002;5.354;2023-03-11T07:00:59;12.00;;;6.32;;
41921;SDS011;27609;51.002;5.354;2023-03-11T07:03:30;12.57;;;5.88;;
41921;SDS011;27609;51.002;5.354;2023-03-11T07:05:56;13.63;;;6.28;;
41921;SDS011;27609;51.002;5.354;2023-03-11T07:08:22;9.40;;;6.00;;
41921;SDS011;27609;51.002;5.354;2023-03-11T07:13:48;10.18;;;6.65;;
41921;SDS011;27609;51.002;5.354;2023-03-11T07:16:14;13.55;;;5.53;;
41921;SDS011;27609;51.002;5.354;2023-03-11T07:18:42;10.63;;;6.07;;
41921;SDS011;27609;51.002;5.354;2023-03-11T07:21:10;11.48;;;6.82;;
41921;SDS011;27609;51.002;5.354;2023-03-11T07:23:40;11.13;;;5.55;;
41921;SDS011;27609;51.002;5.354;2023-03-11T07:26:07;10.52;;;6.65;;
41921;SDS011;27609;51.002;5.354;2023-03-11T07:28:37;11.98;;;5.43;;
41921;SDS011;27609;51.002;5.354;2023-03-11T07:31:11;11.48;;;6.30;;
41921;SDS011;27609;51.002;5.354;2023-03-11T07:33:38;11.20;;;5.65;;
41921;SDS011;27609;51.002;5.354;2023-03-11T07:36:04;9.75;;;5.60;;
41921;SDS011;27609;51.002;5.354;2023-03-11T07:38:31;13.43;;;4.97;;
41921;SDS011;27609;51.002;5.354;2023-03-11T07:40:57;11.68;;;5.40;;
41921;SDS011;27609;51.002;5.354;2023-03-11T07:43:23;8.93;;;5.65;;
41921;SDS011;27609;51.002;5.354;2023-03-11T07:45:49;8.85;;;5.07;;
41921;SDS011;27609;51.002;5.354;2023-03-11T07:48:15;13.07;;;5.30;;
41921;SDS011;27609;51.002;5.354;2023-03-11T07:50:41;9.23;;;4.97;;
41921;SDS011;27609;51.002;5.354;2023-03-11T07:53:07;11.80;;;5.57;;
41921;SDS011;27609;51.002;5.354;2023-03-11T07:55:32;12.63;;;5.47;;
41921;SDS011;27609;51.002;5.354;2023-03-11T07:57:58;8.30;;;5.18;;
41921;SDS011;27609;51.002;5.354;2023-03-11T08:00:24;12.55;;;5.10;;
41921;SDS011;27609;51.002;5.354;2023-03-11T08:02:50;8.82;;;4.75;;
41921;SDS011;27609;51.002;5.354;2023-03-11T08:05:16;10.85;;;5.00;;
41921;SDS011;27609;51.002;5.354;2023-03-11T08:07:44;14.93;;;6.22;;
41921;SDS011;27609;51.002;5.354;2023-03-11T08:10:10;8.85;;;5.18;;
41921;SDS011;27609;51.002;5.354;2023-03-11T08:12:36;13.75;;;5.75;;
41921;SDS011;27609;51.002;5.354;2023-03-11T08:15:02;11.35;;;6.50;;
41921;SDS011;27609;51.002;5.354;2023-03-11T08:17:28;9.98;;;4.90;;
41921;SDS011;27609;51.002;5.354;2023-03-11T08:19:54;12.13;;;5.72;;
41921;SDS011;27609;51.002;5.354;2023-03-11T08:22:19;7.57;;;4.90;;
41921;SDS011;27609;51.002;5.354;2023-03-11T08:24:49;11.02;;;5.28;;
41921;SDS011;27609;51.002;5.354;2023-03-11T08:27:15;9.82;;;5.22;;
41921;SDS011;27609;51.002;5.354;2023-03-11T08:29:41;11.13;;;5.53;;
41921;SDS011;27609;51.002;5.354;2023-03-11T08:32:07;13.20;;;5.30;;
41921;SDS011;27609;51.002;5.354;2023-03-11T08:34:32;11.00;;;5.70;;
41921;SDS011;27609;51.002;5.354;2023-03-11T08:36:59;11.32;;;4.97;;
41921;SDS011;27609;51.002;5.354;2023-03-11T08:39:24;10.57;;;5.40;;
41921;SDS011;27609;51.002;5.354;2023-03-11T08:41:50;12.80;;;4.93;;
41921;SDS011;27609;51.002;5.354;2023-03-11T08:44:16;7.32;;;5.03;;
41921;SDS011;27609;51.002;5.354;2023-03-11T08:46:41;12.60;;;5.22;;
41921;SDS011;27609;51.002;5.354;2023-03-11T08:49:07;15.10;;;5.18;;
41921;SDS011;27609;51.002;5.354;2023-03-11T08:51:34;14.18;;;4.65;;
41921;SDS011;27609;51.002;5.354;2023-03-11T08:54:01;10.35;;;4.00;;
41921;SDS011;27609;51.002;5.354;2023-03-11T08:56:27;9.15;;;4.18;;
41921;SDS011;27609;51.002;5.354;2023-03-11T08:58:53;12.05;;;4.95;;
41921;SDS011;27609;51.002;5.354;2023-03-11T09:01:18;11.18;;;4.63;;
41921;SDS011;27609;51.002;5.354;2023-03-11T09:03:44;8.27;;;4.28;;
41921;SDS011;27609;51.002;5.354;2023-03-11T09:06:11;9.35;;;3.83;;
41921;SDS011;27609;51.002;5.354;2023-03-11T09:08:39;4.97;;;3.60;;
41921;SDS011;27609;51.002;5.354;2023-03-11T09:11:06;6.70;;;3.40;;
41921;SDS011;27609;51.002;5.354;2023-03-11T09:13:32;10.90;;;3.72;;
41921;SDS011;27609;51.002;5.354;2023-03-11T09:15:58;8.60;;;2.65;;
41921;SDS011;27609;51.002;5.354;2023-03-11T09:18:24;10.82;;;2.67;;
41921;SDS011;27609;51.002;5.354;2023-03-11T09:20:51;6.03;;;2.13;;
41921;SDS011;27609;51.002;5.354;2023-03-11T09:23:22;14.30;;;2.15;;
41921;SDS011;27609;51.002;5.354;2023-03-11T09:25:48;6.35;;;1.65;;
41921;SDS011;27609;51.002;5.354;2023-03-11T09:28:13;9.38;;;2.22;;
41921;SDS011;27609;51.002;5.354;2023-03-11T09:30:39;7.15;;;2.10;;
41921;SDS011;27609;51.002;5.354;2023-03-11T09:33:04;3.65;;;1.50;;
41921;SDS011;27609;51.002;5.354;2023-03-11T09:35:30;3.55;;;1.60;;
41921;SDS011;27609;51.002;5.354;2023-03-11T09:37:56;9.48;;;1.92;;
41921;SDS011;27609;51.002;5.354;2023-03-11T09:40:22;10.85;;;2.20;;
41921;SDS011;27609;51.002;5.354;2023-03-11T09:43:03;6.03;;;1.70;;
41921;SDS011;27609;51.002;5.354;2023-03-11T09:46:39;11.88;;;2.35;;
41921;SDS011;27609;51.002;5.354;2023-03-11T09:48:43;2.25;;;1.85;;
41921;SDS011;27609;51.002;5.354;2023-03-11T09:54:04;10.52;;;2.10;;
41921;SDS011;27609;51.002;5.354;2023-03-11T09:56:34;6.55;;;1.75;;
41921;SDS011;27609;51.002;5.354;2023-03-11T09:59:04;5.07;;;2.03;;
41921;SDS011;27609;51.002;5.354;2023-03-11T10:01:54;3.55;;;1.38;;
41921;SDS011;27609;51.002;5.354;2023-03-11T10:04:24;7.07;;;1.27;;
41921;SDS011;27609;51.002;5.354;2023-03-11T10:06:51;3.85;;;1.30;;
41921;SDS011;27609;51.002;5.354;2023-03-11T10:10:03;3.85;;;0.98;;
41921;SDS011;27609;51.002;5.354;2023-03-11T10:25:46;5.65;;;1.55;;
41921;SDS011;27609;51.002;5.354;2023-03-11T10:28:53;6.35;;;1.30;;
41921;SDS011;27609;51.002;5.354;2023-03-11T10:31:38;5.13;;;1.20;;
41921;SDS011;27609;51.002;5.354;2023-03-11T10:37:01;8.15;;;1.48;;
41921;SDS011;27609;51.002;5.354;2023-03-11T10:39:36;5.72;;;1.95;;
41921;SDS011;27609;51.002;5.354;2023-03-11T10:42:04;6.28;;;2.33;;
41921;SDS011;27609;51.002;5.354;2023-03-11T10:44:35;3.45;;;1.38;;
41921;SDS011;27609;51.002;5.354;2023-03-11T10:47:02;3.05;;;1.08;;
41921;SDS011;27609;51.002;5.354;2023-03-11T10:49:29;5.38;;;1.23;;
41921;SDS011;27609;51.002;5.354;2023-03-11T10:51:55;6.60;;;1.35;;
41921;SDS011;27609;51.002;5.354;2023-03-11T10:54:35;5.28;;;1.25;;
41921;SDS011;27609;51.002;5.354;2023-03-11T10:59:53;4.60;;;1.10;;
41921;SDS011;27609;51.002;5.354;2023-03-11T11:02:26;5.03;;;1.20;;
41921;SDS011;27609;51.002;5.354;2023-03-11T11:08:03;2.40;;;1.10;;
41921;SDS011;27609;51.002;5.354;2023-03-11T11:10:29;2.83;;;1.33;;
41921;SDS011;27609;51.002;5.354;2023-03-11T11:13:00;5.72;;;1.70;;
41921;SDS011;27609;51.002;5.354;2023-03-11T11:15:40;7.10;;;1.58;;
41921;SDS011;27609;51.002;5.354;2023-03-11T11:18:35;8.90;;;1.20;;
41921;SDS011;27609;51.002;5.354;2023-03-11T11:21:10;5.38;;;1.23;;
41921;SDS011;27609;51.002;5.354;2023-03-11T11:24:01;6.45;;;1.17;;
41921;SDS011;27609;51.002;5.354;2023-03-11T11:27:14;7.18;;;1.60;;
41921;SDS011;27609;51.002;5.354;2023-03-11T11:29:35;6.03;;;1.33;;
41921;SDS011;27609;51.002;5.354;2023-03-11T11:32:46;4.72;;;1.25;;
41921;SDS011;27609;51.002;5.354;2023-03-11T11:34:57;2.67;;;1.05;;
41921;SDS011;27609;51.002;5.354;2023-03-11T11:37:25;2.65;;;1.17;;
41921;SDS011;27609;51.002;5.354;2023-03-11T11:40:20;6.93;;;1.45;;
41921;SDS011;27609;51.002;5.354;2023-03-11T11:48:05;3.28;;;1.10;;
41921;SDS011;27609;51.002;5.354;2023-03-11T11:50:44;4.43;;;1.37;;
41921;SDS011;27609;51.002;5.354;2023-03-11T11:56:07;2.78;;;0.90;;
41921;SDS011;27609;51.002;5.354;2023-03-11T11:58:32;7.40;;;1.52;;
41921;SDS011;27609;51.002;5.354;2023-03-11T12:05:55;3.28;;;1.45;;
41921;SDS011;27609;51.002;5.354;2023-03-11T12:11:03;6.78;;;1.23;;
41921;SDS011;27609;51.002;5.354;2023-03-11T12:27:26;5.13;;;1.10;;
41921;SDS011;27609;51.002;5.354;2023-03-11T12:30:05;7.78;;;1.00;;
41921;SDS011;27609;51.002;5.354;2023-03-11T12:32:42;5.80;;;1.05;;
41921;SDS011;27609;51.002;5.354;2023-03-11T12:37:44;5.53;;;1.65;;
41921;SDS011;27609;51.002;5.354;2023-03-11T12:46:01;6.22;;;1.20;;
41921;SDS011;27609;51.002;5.354;2023-03-11T12:48:43;1.73;;;1.15;;
41921;SDS011;27609;51.002;5.354;2023-03-11T12:53:58;4.47;;;1.08;;
41921;SDS011;27609;51.002;5.354;2023-03-11T13:10:17;3.90;;;1.27;;
41921;SDS011;27609;51.002;5.354;2023-03-11T13:12:59;6.63;;;1.58;;
41921;SDS011;27609;51.002;5.354;2023-03-11T13:15:27;6.32;;;1.55;;
41921;SDS011;27609;51.002;5.354;2023-03-11T13:20:48;4.47;;;1.20;;
41921;SDS011;27609;51.002;5.354;2023-03-11T13:23:20;5.60;;;1.55;;
41921;SDS011;27609;51.002;5.354;2023-03-11T13:31:28;3.67;;;1.30;;
41921;SDS011;27609;51.002;5.354;2023-03-11T13:36:44;3.10;;;0.90;;
41921;SDS011;27609;51.002;5.354;2023-03-11T13:39:19;3.80;;;1.10;;
41921;SDS011;27609;51.002;5.354;2023-03-11T13:42:02;7.20;;;1.20;;
41921;SDS011;27609;51.002;5.354;2023-03-11T13:44:34;3.33;;;1.33;;
41921;SDS011;27609;51.002;5.354;2023-03-11T13:47:06;1.27;;;0.90;;
41921;SDS011;27609;51.002;5.354;2023-03-11T13:49:51;3.38;;;1.10;;
41921;SDS011;27609;51.002;5.354;2023-03-11T13:55:04;6.65;;;1.77;;
41921;SDS011;27609;51.002;5.354;2023-03-11T13:57:49;5.55;;;1.58;;
41921;SDS011;27609;51.002;5.354;2023-03-11T14:00:17;4.65;;;1.77;;
41921;SDS011;27609;51.002;5.354;2023-03-11T14:05:35;4.28;;;1.48;;
41921;SDS011;27609;51.002;5.354;2023-03-11T14:13:58;3.17;;;1.25;;
41921;SDS011;27609;51.002;5.354;2023-03-11T14:16:19;4.13;;;1.50;;
41921;SDS011;27609;51.002;5.354;2023-03-11T14:19:00;3.60;;;1.05;;
41921;SDS011;27609;51.002;5.354;2023-03-11T14:21:40;4.90;;;0.98;;
41921;SDS011;27609;51.002;5.354;2023-03-11T14:24:19;6.57;;;1.90;;
41921;SDS011;27609;51.002;5.354;2023-03-11T14:26:53;6.25;;;1.17;;
41921;SDS011;27609;51.002;5.354;2023-03-11T14:29:30;4.50;;;1.17;;
41921;SDS011;27609;51.002;5.354;2023-03-11T14:31:59;4.80;;;1.17;;
41921;SDS011;27609;51.002;5.354;2023-03-11T14:34:26;3.47;;;1.25;;
41921;SDS011;27609;51.002;5.354;2023-03-11T14:36:53;2.08;;;1.05;;
41921;SDS011;27609;51.002;5.354;2023-03-11T14:45:10;6.00;;;1.48;;
41921;SDS011;27609;51.002;5.354;2023-03-11T14:50:12;3.03;;;1.25;;
41921;SDS011;27609;51.002;5.354;2023-03-11T14:52:45;3.40;;;1.10;;
41921;SDS011;27609;51.002;5.354;2023-03-11T14:55:16;5.57;;;1.42;;
41921;SDS011;27609;51.002;5.354;2023-03-11T14:57:47;5.18;;;1.15;;
41921;SDS011;27609;51.002;5.354;2023-03-11T15:00:21;1.75;;;1.15;;
41921;SDS011;27609;51.002;5.354;2023-03-11T15:02:54;4.85;;;1.13;;
41921;SDS011;27609;51.002;5.354;2023-03-11T15:05:41;4.30;;;1.08;;
41921;SDS011;27609;51.002;5.354;2023-03-11T15:08:20;9.20;;;1.77;;
41921;SDS011;27609;51.002;5.354;2023-03-11T15:13:33;5.70;;;1.20;;
41921;SDS011;27609;51.002;5.354;2023-03-11T15:16:00;3.80;;;1.30;;
41921;SDS011;27609;51.002;5.354;2023-03-11T15:18:29;1.98;;;1.23;;
41921;SDS011;27609;51.002;5.354;2023-03-11T15:21:00;6.18;;;1.10;;
41921;SDS011;27609;51.002;5.354;2023-03-11T15:23:27;5.82;;;1.23;;
41921;SDS011;27609;51.002;5.354;2023-03-11T15:25:52;2.70;;;0.82;;
41921;SDS011;27609;51.002;5.354;2023-03-11T15:28:22;7.80;;;1.58;;
41921;SDS011;27609;51.002;5.354;2023-03-11T15:31:12;3.95;;;1.80;;
41921;SDS011;27609;51.002;5.354;2023-03-11T15:33:39;2.55;;;0.98;;
41921;SDS011;27609;51.002;5.354;2023-03-11T15:36:24;4.32;;;1.38;;
41921;SDS011;27609;51.002;5.354;2023-03-11T15:41:39;3.97;;;1.10;;
41921;SDS011;27609;51.002;5.354;2023-03-11T15:44:15;2.50;;;1.10;;
41921;SDS011;27609;51.002;5.354;2023-03-11T15:46:47;5.32;;;1.30;;
41921;SDS011;27609;51.002;5.354;2023-03-11T15:49:13;3.97;;;1.95;;
41921;SDS011;27609;51.002;5.354;2023-03-11T15:51:38;5.05;;;2.00;;
41921;SDS011;27609;51.002;5.354;2023-03-11T15:54:04;4.03;;;1.77;;
41921;SDS011;27609;51.002;5.354;2023-03-11T15:56:30;4.38;;;1.38;;
41921;SDS011;27609;51.002;5.354;2023-03-11T15:58:57;6.60;;;2.22;;
41921;SDS011;27609;51.002;5.354;2023-03-11T16:01:23;2.63;;;1.02;;
41921;SDS011;27609;51.002;5.354;2023-03-11T16:03:52;4.18;;;1.77;;
41921;SDS011;27609;51.002;5.354;2023-03-11T16:06:18;3.60;;;1.00;;
41921;SDS011;27609;51.002;5.354;2023-03-11T16:08:46;2.72;;;1.10;;
41921;SDS011;27609;51.002;5.354;2023-03-11T16:11:12;8.50;;;3.13;;
41921;SDS011;27609;51.002;5.354;2023-03-11T16:13:38;5.25;;;1.60;;
41921;SDS011;27609;51.002;5.354;2023-03-11T16:16:05;3.10;;;1.17;;
41921;SDS011;27609;51.002;5.354;2023-03-11T16:18:33;4.07;;;1.40;;
41921;SDS011;27609;51.002;5.354;2023-03-11T16:21:00;2.95;;;1.67;;
41921;SDS011;27609;51.002;5.354;2023-03-11T16:23:32;5.50;;;1.40;;
41921;SDS011;27609;51.002;5.354;2023-03-11T16:26:01;4.35;;;1.38;;
41921;SDS011;27609;51.002;5.354;2023-03-11T16:28:28;4.80;;;1.33;;
41921;SDS011;27609;51.002;5.354;2023-03-11T16:30:54;4.38;;;1.42;;
41921;SDS011;27609;51.002;5.354;2023-03-11T16:33:20;3.67;;;1.00;;
41921;SDS011;27609;51.002;5.354;2023-03-11T16:35:45;2.78;;;1.23;;
41921;SDS011;27609;51.002;5.354;2023-03-11T16:38:11;4.85;;;1.25;;
41921;SDS011;27609;51.002;5.354;2023-03-11T16:40:37;4.45;;;1.67;;
41921;SDS011;27609;51.002;5.354;2023-03-11T16:43:07;5.45;;;2.17;;
41921;SDS011;27609;51.002;5.354;2023-03-11T16:45:35;8.68;;;1.38;;
41921;SDS011;27609;51.002;5.354;2023-03-11T16:48:00;3.65;;;1.65;;
41921;SDS011;27609;51.002;5.354;2023-03-11T16:50:26;2.63;;;1.40;;
41921;SDS011;27609;51.002;5.354;2023-03-11T16:52:52;5.97;;;2.67;;
41921;SDS011;27609;51.002;5.354;2023-03-11T16:55:19;5.00;;;1.23;;
41921;SDS011;27609;51.002;5.354;2023-03-11T16:57:45;3.83;;;1.25;;
41921;SDS011;27609;51.002;5.354;2023-03-11T17:00:11;3.03;;;1.05;;
41921;SDS011;27609;51.002;5.354;2023-03-11T17:02:38;3.30;;;1.15;;
41921;SDS011;27609;51.002;5.354;2023-03-11T17:05:05;5.18;;;1.27;;